createdAt,value
2019-05-19T00:00:22.328Z,1006.34
2019-05-19T00:01:12.561Z,1006.27
2019-05-19T00:01:52.324Z,1006.29
2019-05-19T00:02:52.330Z,1006.25
2019-05-19T00:04:22.357Z,1006.12
2019-05-19T00:05:52.373Z,1006.18
2019-05-19T00:07:32.390Z,1006.21
2019-05-19T00:08:52.447Z,1006.08
2019-05-19T00:10:22.453Z,1006.08
2019-05-19T00:11:12.523Z,1006.17
2019-05-19T00:11:52.502Z,1006.14
2019-05-19T00:12:52.571Z,1006.09
2019-05-19T00:14:22.629Z,1006.11
2019-05-19T00:15:22.643Z,1006.12
2019-05-19T00:16:52.752Z,1006.11
2019-05-19T00:17:52.725Z,1006.1
2019-05-19T00:19:26.543Z,1006.11
2019-05-19T00:20:02.832Z,1006.07
2019-05-19T00:21:22.859Z,1006.12
2019-05-19T00:22:52.869Z,1006.09
2019-05-19T00:23:42.886Z,1006.12
2019-05-19T00:24:22.887Z,1006.07
2019-05-19T00:25:02.902Z,1006.1
2019-05-19T00:26:52.917Z,1006.12
2019-05-19T00:27:52.937Z,1006.09
2019-05-19T00:29:53.018Z,1006.11
2019-05-19T00:31:13.060Z,1006.04
2019-05-19T00:31:53.035Z,1006.02
2019-05-19T00:32:53.134Z,1006
2019-05-19T00:34:53.183Z,1006.1
2019-05-19T00:36:23.207Z,1006.1
2019-05-19T00:37:53.261Z,1006.19
2019-05-19T00:39:23.308Z,1006.19
2019-05-19T00:40:03.345Z,1006.17
2019-05-19T00:41:53.409Z,1006.15
2019-05-19T00:43:53.424Z,1006.09
2019-05-19T00:45:53.452Z,1006.08
2019-05-19T00:47:23.488Z,1006.03
2019-05-19T00:48:03.524Z,1006
2019-05-19T00:49:53.528Z,1006.06
2019-05-19T00:51:53.676Z,1006.02
2019-05-19T00:52:43.756Z,1006.06
2019-05-19T00:53:13.740Z,1006.06
2019-05-19T00:53:53.751Z,1006.05
2019-05-19T00:54:43.765Z,1006.03
2019-05-19T00:55:53.788Z,1005.99
2019-05-19T00:57:23.803Z,1005.99
2019-05-19T00:58:03.851Z,1005.97
2019-05-19T00:59:53.863Z,1005.95
2019-05-19T01:01:53.983Z,1005.9
2019-05-19T01:03:53.984Z,1005.96
2019-05-19T01:05:54.026Z,1005.99
2019-05-19T01:07:24.050Z,1005.88
2019-05-19T01:08:04.045Z,1005.9
2019-05-19T01:09:54.086Z,1005.91
2019-05-19T01:11:15.050Z,1005.85
2019-05-19T01:11:55.314Z,1005.89
2019-05-19T01:13:24.218Z,1005.76
2019-05-19T01:14:04.270Z,1005.85
2019-05-19T01:15:54.330Z,1005.82
2019-05-19T01:17:24.417Z,1005.82
2019-05-19T01:18:04.453Z,1005.86
2019-05-19T01:19:24.469Z,1005.79
2019-05-19T01:20:24.495Z,1005.76
2019-05-19T01:21:04.535Z,1005.76
2019-05-19T01:22:34.550Z,1005.72
2019-05-19T01:23:54.564Z,1005.8
2019-05-19T01:25:24.620Z,1005.85
2019-05-19T01:26:24.647Z,1005.84
2019-05-19T01:27:34.711Z,1005.78
2019-05-19T01:28:54.735Z,1005.85
2019-05-19T01:30:24.812Z,1005.8
2019-05-19T01:31:54.835Z,1005.84
2019-05-19T01:33:24.924Z,1005.75
2019-05-19T01:34:54.964Z,1005.84
2019-05-19T01:37:35.043Z,1005.88
2019-05-19T01:38:55.101Z,1005.79
2019-05-19T01:41:25.156Z,1005.81
2019-05-19T01:42:25.165Z,1005.74
2019-05-19T01:43:55.175Z,1005.75
2019-05-19T01:46:25.214Z,1005.6
2019-05-19T01:47:25.233Z,1005.74
2019-05-19T01:48:55.253Z,1005.7
2019-05-19T01:50:25.292Z,1005.75
2019-05-19T01:51:55.289Z,1005.64
2019-05-19T01:53:25.416Z,1005.69
2019-05-19T01:54:55.421Z,1005.55
2019-05-19T01:56:25.433Z,1005.64
2019-05-19T01:57:25.485Z,1005.6
2019-05-19T01:58:55.603Z,1005.64
2019-05-19T02:00:25.594Z,1005.58
2019-05-19T02:01:55.658Z,1005.61
2019-05-19T02:03:25.721Z,1005.61
2019-05-19T02:04:55.772Z,1005.64
2019-05-19T02:06:25.775Z,1005.62
2019-05-19T02:07:25.837Z,1005.57
2019-05-19T02:08:55.846Z,1005.6
2019-05-19T02:10:25.905Z,1005.58
2019-05-19T02:11:55.888Z,1005.51
2019-05-19T02:13:25.921Z,1005.52
2019-05-19T02:14:56.049Z,1005.53
2019-05-19T02:16:26.078Z,1005.49
2019-05-19T02:17:26.103Z,1005.53
2019-05-19T02:18:56.109Z,1005.52
2019-05-19T02:20:33.003Z,1005.51
2019-05-19T02:21:56.186Z,1005.51
2019-05-19T02:23:26.228Z,1005.46
2019-05-19T02:24:56.227Z,1005.46
2019-05-19T02:26:26.237Z,1005.46
2019-05-19T02:27:26.256Z,1005.46
2019-05-19T02:29:57.216Z,1005.46
2019-05-19T02:31:27.235Z,1005.46
2019-05-19T02:32:27.251Z,1005.46
2019-05-19T02:35:57.294Z,1005.46
2019-05-19T02:37:37.384Z,1005.46
2019-05-19T02:38:57.342Z,1005.46
2019-05-19T02:40:27.435Z,1005.46
2019-05-19T02:41:57.412Z,1005.46
2019-05-19T02:43:27.430Z,1005.46
2019-05-19T02:44:57.452Z,1005.46
2019-05-19T02:57:57.678Z,1005.46
2019-05-19T02:59:27.712Z,1005.46
2019-05-19T03:00:57.752Z,1005.46
2019-05-19T03:01:57.739Z,1005.46
2019-05-19T03:04:27.790Z,1005.46
2019-05-19T03:07:07.822Z,1005.46
2019-05-19T03:08:27.831Z,1005.46
2019-05-19T03:09:57.860Z,1005.46
2019-05-19T03:11:27.880Z,1005.46
2019-05-19T03:12:27.885Z,1005.46
2019-05-19T03:15:58.062Z,1005.46
2019-05-19T03:16:58.074Z,1005.46
2019-05-19T03:21:58.227Z,1005.46
2019-05-19T03:26:58.334Z,1005.46
2019-05-19T03:32:12.284Z,1005.46
2019-05-19T03:38:28.619Z,1005.46
2019-05-19T03:41:38.700Z,1005.46
2019-05-19T03:46:38.826Z,1005.46
2019-05-19T03:51:38.921Z,1005.46
2019-05-19T03:56:39.027Z,1005.46
2019-05-19T04:01:39.352Z,1005.46
2019-05-19T04:06:39.453Z,1005.46
2019-05-19T04:11:39.564Z,1005.46
2019-05-19T04:16:39.669Z,1005.46
2019-05-19T04:19:59.839Z,1005.46
2019-05-19T04:20:39.831Z,1005.46
2019-05-19T04:21:48.542Z,1005.46
2019-05-19T04:22:59.906Z,1005.46
2019-05-19T04:23:39.872Z,1005.46
2019-05-19T04:25:59.955Z,1005.46
2019-05-19T04:26:59.958Z,1005.46
2019-05-19T04:27:39.977Z,1005.46
2019-05-19T04:28:59.976Z,1005.46
2019-05-19T04:29:39.992Z,1005.46
2019-05-19T04:31:40.021Z,1005.46
2019-05-19T04:35:00.072Z,1005.46
2019-05-19T04:35:40.100Z,1005.46
2019-05-19T04:36:40.090Z,1005.46
2019-05-19T04:38:00.124Z,1005.46
2019-05-19T04:38:40.117Z,1005.46
2019-05-19T04:41:00.166Z,1005.46
2019-05-19T04:42:00.169Z,1005.46
2019-05-19T04:42:40.244Z,1005.46
2019-05-19T04:44:00.353Z,1005.46
2019-05-19T04:44:40.270Z,1005.46
2019-05-19T04:46:40.308Z,1005.46
2019-05-19T04:50:40.356Z,1005.46
2019-05-19T04:51:40.399Z,1005.46
2019-05-19T04:55:40.554Z,1005.46
2019-05-19T04:56:40.574Z,1005.46
2019-05-19T05:01:40.695Z,1005.46
2019-05-19T05:06:40.785Z,1005.46
2019-05-19T05:11:30.879Z,1005.46
2019-05-19T05:15:00.933Z,1005.46
2019-05-19T05:16:40.993Z,1005.46
2019-05-19T05:21:01.111Z,1005.46
2019-05-19T05:22:21.524Z,1005.46
2019-05-19T05:25:31.215Z,1005.46
2019-05-19T05:26:41.224Z,1005.46
2019-05-19T05:30:01.393Z,1005.46
2019-05-19T05:34:31.354Z,1005.46
2019-05-19T05:36:01.424Z,1005.46
2019-05-19T05:37:01.455Z,1005.46
2019-05-19T05:39:31.567Z,1005.46
2019-05-19T05:41:01.584Z,1005.46
2019-05-19T05:43:31.645Z,1005.46
2019-05-19T05:45:01.669Z,1005.46
2019-05-19T05:46:41.678Z,1005.46
2019-05-19T05:48:01.721Z,1005.46
2019-05-19T05:49:31.708Z,1005.46
2019-05-19T05:51:01.738Z,1005.46
2019-05-19T05:52:38.324Z,1005.46
2019-05-19T05:55:01.844Z,1005.46
2019-05-19T06:02:32.132Z,1005.46
2019-05-19T06:06:02.209Z,1005.46
2019-05-19T06:11:42.344Z,1005.46
2019-05-19T06:13:02.377Z,1005.46
2019-05-19T06:14:32.436Z,1005.46
2019-05-19T06:16:02.416Z,1005.46
2019-05-19T06:17:32.430Z,1005.46
2019-05-19T06:19:02.469Z,1005.46
2019-05-19T06:20:32.497Z,1005.46
2019-05-19T06:21:32.515Z,1005.46
2019-05-19T06:23:02.560Z,1005.46
2019-05-19T06:24:32.597Z,1005.46
2019-05-19T06:26:32.658Z,1005.46
2019-05-19T06:29:02.677Z,1005.46
2019-05-19T06:30:32.723Z,1005.46
2019-05-19T06:31:32.740Z,1005.46
2019-05-19T06:33:02.787Z,1005.46
2019-05-19T06:34:32.805Z,1005.46
2019-05-19T06:36:02.846Z,1005.46
2019-05-19T06:38:32.877Z,1005.46
2019-05-19T06:40:02.902Z,1005.46
2019-05-19T06:42:32.960Z,1005.46
2019-05-19T06:44:03.503Z,1005.46
2019-05-19T06:45:32.976Z,1005.46
2019-05-19T06:46:32.987Z,1005.46
2019-05-19T06:48:02.996Z,1005.46
2019-05-19T06:49:33.035Z,1005.46
2019-05-19T06:52:03.066Z,1005.46
2019-05-19T06:53:33.104Z,1005.46
2019-05-19T06:55:03.221Z,1005.46
2019-05-19T06:57:33.217Z,1005.46
2019-05-19T06:59:03.250Z,1005.46
2019-05-19T07:00:33.261Z,1005.46
2019-05-19T07:01:43.303Z,1005.46
2019-05-19T07:03:03.322Z,1005.46
2019-05-19T07:04:33.334Z,1005.46
2019-05-19T07:05:33.343Z,1005.46
2019-05-19T07:06:43.386Z,1005.46
2019-05-19T07:08:03.382Z,1005.46
2019-05-19T07:09:33.415Z,1005.46
2019-05-19T07:12:03.440Z,1005.46
2019-05-19T07:13:33.505Z,1005.46
2019-05-19T07:15:03.626Z,1005.46
2019-05-19T07:16:13.624Z,1005.46
2019-05-19T07:17:33.676Z,1005.46
2019-05-19T07:19:03.738Z,1005.46
2019-05-19T07:19:53.748Z,1005.46
2019-05-19T07:20:33.755Z,1005.46
2019-05-19T07:21:43.759Z,1005.46
2019-05-19T07:23:03.907Z,1005.46
2019-05-19T07:23:53.836Z,1005.46
2019-05-19T07:24:33.852Z,1005.46
2019-05-19T07:25:23.857Z,1005.46
2019-05-19T07:26:23.863Z,1005.46
2019-05-19T07:27:03.873Z,1005.46
2019-05-19T07:27:53.923Z,1005.46
2019-05-19T07:28:33.906Z,1005.46
2019-05-19T07:29:23.918Z,1005.46
2019-05-19T07:30:04.046Z,1005.46
2019-05-19T07:31:14.048Z,1005.46
2019-05-19T07:32:34.113Z,1005.46
2019-05-19T07:34:04.122Z,1005.46
2019-05-19T07:35:34.130Z,1005.46
2019-05-19T07:36:44.163Z,1005.46
2019-05-19T07:38:07.205Z,1005.46
2019-05-19T07:39:34.286Z,1005.46
2019-05-19T07:41:04.331Z,1005.46
2019-05-19T07:43:34.439Z,1005.46
2019-05-19T07:45:04.468Z,1005.46
2019-05-19T07:46:44.489Z,1005.46
2019-05-19T07:48:04.539Z,1005.46
2019-05-19T07:49:34.560Z,1005.46
2019-05-19T07:53:14.729Z,1005.46
2019-05-19T07:55:14.917Z,1005.46
2019-05-19T07:56:04.846Z,1005.46
2019-05-19T07:59:07.692Z,1005.46
2019-05-19T08:01:14.981Z,1005.46
2019-05-19T08:04:15.009Z,1005.46
2019-05-19T08:05:35.038Z,1005.46
2019-05-19T08:07:05.059Z,1005.46
2019-05-19T08:08:35.096Z,1005.46
2019-05-19T08:09:15.122Z,1005.46
2019-05-19T08:12:15.178Z,1005.08
2019-05-19T08:16:15.776Z,1005.08
2019-05-19T08:21:15.855Z,1004.99
2019-05-19T08:26:16.051Z,1005
2019-05-19T08:27:36.069Z,1004.99
2019-05-19T08:28:15.943Z,1004.94
2019-05-19T08:31:15.985Z,1004.99
2019-05-19T08:34:16.154Z,1004.97
2019-05-19T08:36:06.096Z,1004.99
2019-05-19T08:43:36.264Z,1004.96
2019-05-19T08:44:16.270Z,1004.97
2019-05-19T08:46:36.298Z,1004.99
2019-05-19T08:47:16.316Z,1004.98
2019-05-19T08:49:36.362Z,1005
2019-05-19T08:50:16.374Z,1004.89
2019-05-19T08:52:36.400Z,1004.99
2019-05-19T08:53:16.428Z,1004.98
2019-05-19T08:55:36.459Z,1004.95
2019-05-19T08:56:16.474Z,1005.01
2019-05-19T08:57:56.677Z,1005.06
2019-05-19T08:59:16.668Z,1004.98
2019-05-19T09:01:36.754Z,1004.99
2019-05-19T09:02:16.746Z,1005.03
2019-05-19T09:06:06.820Z,1005
2019-05-19T09:11:36.903Z,1005.06
2019-05-19T09:12:17.014Z,1005.08
2019-05-19T09:14:36.971Z,1005.03
2019-05-19T09:16:07.001Z,1005.01
2019-05-19T09:17:37.068Z,1004.91
2019-05-19T09:18:17.088Z,1004.94
2019-05-19T09:20:37.242Z,1004.88
2019-05-19T09:21:37.239Z,1004.89
2019-05-19T09:25:07.265Z,1004.88
2019-05-19T09:36:37.467Z,1004.85
2019-05-19T09:38:07.476Z,1004.84
2019-05-19T09:39:37.557Z,1004.88
2019-05-19T09:41:07.600Z,1004.84
2019-05-19T09:42:37.591Z,1004.9
2019-05-19T09:44:07.607Z,1004.88
2019-05-19T09:45:37.756Z,1004.93
2019-05-19T09:46:47.662Z,1004.9
2019-05-19T09:50:07.708Z,1004.85
2019-05-19T09:51:37.794Z,1004.84
2019-05-19T09:53:07.788Z,1004.89
2019-05-19T09:56:18.204Z,1004.85
2019-05-19T10:01:58.015Z,1004.85
2019-05-19T10:04:38.131Z,1004.88
2019-05-19T10:06:18.124Z,1004.89
2019-05-19T10:07:38.140Z,1004.87
2019-05-19T10:09:08.151Z,1004.82
2019-05-19T10:10:38.178Z,1004.81
2019-05-19T10:11:38.199Z,1004.82
2019-05-19T10:15:08.277Z,1004.83
2019-05-19T10:16:18.279Z,1004.81
2019-05-19T10:17:38.298Z,1004.8
2019-05-19T10:20:08.451Z,1004.81
2019-05-19T10:21:18.403Z,1004.87
2019-05-19T10:23:38.463Z,1004.9
2019-05-19T10:27:08.569Z,1004.89
2019-05-19T10:29:38.584Z,1004.96
2019-05-19T10:31:08.664Z,1004.89
2019-05-19T10:32:38.645Z,1004.85
2019-05-19T10:34:08.662Z,1004.85
2019-05-19T10:35:38.712Z,1004.94
2019-05-19T10:37:08.761Z,1004.8
2019-05-19T10:38:38.788Z,1004.87
2019-05-19T10:40:08.819Z,1004.87
2019-05-19T10:41:38.834Z,1004.88
2019-05-19T10:45:08.878Z,1004.88
2019-05-19T10:46:18.898Z,1004.84
2019-05-19T10:50:09.046Z,1004.88
2019-05-19T10:51:39.073Z,1004.91
2019-05-19T10:53:09.082Z,1004.9
2019-05-19T10:54:39.119Z,1004.99
2019-05-19T10:56:09.163Z,1004.99
2019-05-19T10:57:39.182Z,1004.97
2019-05-19T10:59:09.288Z,1005.01
2019-05-19T11:00:39.301Z,1004.98
2019-05-19T11:02:09.330Z,1004.97
2019-05-19T11:05:39.406Z,1004.99
2019-05-19T11:08:09.480Z,1004.99
2019-05-19T11:09:39.495Z,1004.91
2019-05-19T11:11:09.511Z,1004.94
2019-05-19T11:12:39.542Z,1005.02
2019-05-19T11:15:09.599Z,1005.01
2019-05-19T11:16:19.622Z,1005.02
2019-05-19T11:17:39.705Z,1005.12
2019-05-19T11:22:09.837Z,1005.07
2019-05-19T11:23:39.944Z,1005
2019-05-19T11:25:09.911Z,1005.08
2019-05-19T11:26:19.929Z,1004.99
2019-05-19T11:28:09.947Z,1004.99
2019-05-19T11:29:39.994Z,1005.02
2019-05-19T11:31:10.029Z,1005.02
2019-05-19T11:32:40.075Z,1005.06
2019-05-19T11:34:10.132Z,1005.02
2019-05-19T11:35:40.144Z,1004.97
2019-05-19T11:37:10.217Z,1005.04
2019-05-19T11:38:40.281Z,1005
2019-05-19T11:40:10.304Z,1004.99
2019-05-19T11:41:40.325Z,1005.03
2019-05-19T11:43:10.358Z,1005.04
2019-05-19T11:45:40.400Z,1005.04
2019-05-19T11:47:10.430Z,1005.06
2019-05-19T11:48:40.441Z,1005
2019-05-19T11:50:10.475Z,1005.03
2019-05-19T11:51:40.489Z,1005.1
2019-05-19T11:53:10.574Z,1005.05
2019-05-19T11:54:40.596Z,1004.98
2019-05-19T11:56:11.447Z,1005.02
2019-05-19T11:56:50.665Z,1005.04
2019-05-19T11:58:50.700Z,1005.01
2019-05-19T12:01:40.737Z,1005.03
2019-05-19T12:03:10.757Z,1005
2019-05-19T12:03:50.766Z,1004.96
2019-05-19T12:07:40.886Z,1004.95
2019-05-19T12:09:40.950Z,1004.98
2019-05-19T12:11:20.893Z,1004.95
2019-05-19T12:12:41.044Z,1005
2019-05-19T12:16:11.077Z,1004.96
2019-05-19T12:16:51.102Z,1005
2019-05-19T12:19:51.185Z,1004.97
2019-05-19T12:21:41.186Z,1004.9
2019-05-19T12:23:11.205Z,1004.9
2019-05-19T12:23:51.227Z,1004.87
2019-05-19T12:29:51.368Z,1004.81
2019-05-19T12:31:41.477Z,1004.83
2019-05-19T12:39:51.696Z,1004.78
2019-05-19T12:41:21.734Z,1004.87
2019-05-19T12:42:41.750Z,1004.75
2019-05-19T12:49:51.888Z,1004.89
2019-05-19T12:51:41.903Z,1004.9
2019-05-19T12:53:11.988Z,1004.91
2019-05-19T12:53:51.975Z,1004.83
2019-05-19T12:59:52.058Z,1004.85
2019-05-19T13:01:42.080Z,1004.84
2019-05-19T13:03:12.101Z,1004.9
2019-05-19T13:03:52.104Z,1004.87
2019-05-19T13:09:12.227Z,1004.84
2019-05-19T13:09:52.241Z,1004.88
2019-05-19T13:11:42.335Z,1004.86
2019-05-19T13:13:12.363Z,1004.82
2019-05-19T13:13:52.351Z,1004.81
2019-05-19T13:16:12.438Z,1004.87
2019-05-19T13:16:52.433Z,1004.83
2019-05-19T13:19:12.457Z,1004.81
2019-05-19T13:19:52.493Z,1004.78
2019-05-19T13:21:42.514Z,1004.76
2019-05-19T13:29:12.712Z,1004.76
2019-05-19T13:29:52.722Z,1004.78
2019-05-19T13:34:42.813Z,1004.77
2019-05-19T13:39:12.917Z,1004.82
2019-05-19T13:40:42.951Z,1004.78
2019-05-19T13:42:12.981Z,1004.68
2019-05-19T13:43:43.026Z,1004.7
2019-05-19T13:45:13.049Z,1004.64
2019-05-19T13:46:23.060Z,1004.62
2019-05-19T13:47:43.115Z,1004.61
2019-05-19T13:49:13.129Z,1004.59
2019-05-19T13:50:43.164Z,1004.61
2019-05-19T13:51:43.252Z,1004.64
2019-05-19T13:53:13.219Z,1004.56
2019-05-19T13:54:43.237Z,1004.61
2019-05-19T13:57:13.316Z,1004.62
2019-05-19T13:58:43.354Z,1004.64
2019-05-19T14:00:13.393Z,1004.57
2019-05-19T14:01:28.412Z,1004.63
2019-05-19T14:02:43.426Z,1004.58
2019-05-19T14:04:13.503Z,1004.58
2019-05-19T14:05:43.519Z,1004.57
2019-05-19T14:06:43.526Z,1004.58
2019-05-19T14:08:13.536Z,1004.55
2019-05-19T14:09:43.568Z,1004.57
2019-05-19T14:12:13.660Z,1004.53
2019-05-19T14:13:03.732Z,1004.56
2019-05-19T14:13:43.681Z,1004.55
2019-05-19T14:15:13.717Z,1004.57
2019-05-19T14:16:23.756Z,1004.57
2019-05-19T14:17:03.832Z,1004.55
2019-05-19T14:17:43.837Z,1004.53
2019-05-19T14:18:33.827Z,1004.6
2019-05-19T14:19:13.833Z,1004.61
2019-05-19T14:20:03.847Z,1004.57
2019-05-19T14:20:43.844Z,1004.6
2019-05-19T14:21:43.896Z,1004.56
2019-05-19T14:22:33.895Z,1004.53
2019-05-19T14:23:13.896Z,1004.58
2019-05-19T14:24:03.915Z,1004.54
2019-05-19T14:24:43.926Z,1004.54
2019-05-19T14:25:33.920Z,1004.48
2019-05-19T14:26:33.968Z,1004.52
2019-05-19T14:27:27.340Z,1004.47
2019-05-19T14:28:44.006Z,1004.49
2019-05-19T14:29:34.020Z,1004.46
2019-05-19T14:30:14.019Z,1004.5
2019-05-19T14:31:24.146Z,1004.47
2019-05-19T14:32:44.093Z,1004.52
2019-05-19T14:34:14.107Z,1004.46
2019-05-19T14:35:44.137Z,1004.39
2019-05-19T14:37:14.212Z,1004.46
2019-05-19T14:38:44.286Z,1004.46
2019-05-19T14:40:14.279Z,1004.49
2019-05-19T14:41:33.083Z,1004.51
2019-05-19T14:42:44.362Z,1004.56
2019-05-19T14:44:14.382Z,1004.53
2019-05-19T14:45:44.417Z,1004.53
2019-05-19T14:46:44.411Z,1004.4
2019-05-19T14:48:14.489Z,1004.45
2019-05-19T14:49:45.636Z,1004.51
2019-05-19T14:52:15.213Z,1004.61
2019-05-19T14:53:44.611Z,1004.59
2019-05-19T14:55:14.588Z,1004.59
2019-05-19T14:56:24.605Z,1004.57
2019-05-19T14:57:45.520Z,1004.62
2019-05-19T14:59:14.633Z,1004.55
2019-05-19T15:01:44.669Z,1004.59
2019-05-19T15:03:14.705Z,1004.58
2019-05-19T15:04:44.719Z,1004.58
2019-05-19T15:05:54.717Z,1004.57
2019-05-19T15:07:14.740Z,1004.62
2019-05-19T15:08:44.764Z,1004.58
2019-05-19T15:09:44.797Z,1004.57
2019-05-19T15:10:54.848Z,1004.53
2019-05-19T15:12:14.830Z,1004.55
2019-05-19T15:13:44.856Z,1004.6
2019-05-19T15:15:14.866Z,1004.56
2019-05-19T15:16:24.866Z,1004.51
2019-05-19T15:17:44.899Z,1004.55
2019-05-19T15:19:14.906Z,1004.54
2019-05-19T15:21:44.986Z,1004.51
2019-05-19T15:22:44.955Z,1004.55
2019-05-19T15:24:14.967Z,1004.57
2019-05-19T15:26:45.035Z,1004.56
2019-05-19T15:28:15.027Z,1004.49
2019-05-19T15:29:45.059Z,1004.53
2019-05-19T15:30:55.120Z,1004.53
2019-05-19T15:32:15.121Z,1004.48
2019-05-19T15:33:45.134Z,1004.44
2019-05-19T15:35:15.155Z,1004.53
2019-05-19T15:36:25.279Z,1004.59
2019-05-19T15:37:45.294Z,1004.55
2019-05-19T15:38:45.299Z,1004.48
2019-05-19T15:40:15.322Z,1004.47
2019-05-19T15:41:25.402Z,1004.51
2019-05-19T15:42:45.352Z,1004.55
2019-05-19T15:44:15.366Z,1004.51
2019-05-19T15:46:45.428Z,1004.51
2019-05-19T15:48:15.459Z,1004.46
2019-05-19T15:49:45.502Z,1004.49
2019-05-19T15:50:55.501Z,1004.44
2019-05-19T15:51:59.965Z,1004.47
2019-05-19T15:53:15.548Z,1004.49
2019-05-19T15:54:45.613Z,1004.53
2019-05-19T15:55:55.644Z,1004.49
2019-05-19T15:57:15.648Z,1004.52
2019-05-19T15:58:45.703Z,1004.48
2019-05-19T16:00:15.712Z,1004.49
2019-05-19T16:01:25.736Z,1004.54
2019-05-19T16:02:45.797Z,1004.49
2019-05-19T16:04:15.771Z,1004.48
2019-05-19T16:06:45.951Z,1004.47
2019-05-19T16:07:45.943Z,1004.46
2019-05-19T16:09:15.967Z,1004.49
2019-05-19T16:10:56.059Z,1004.44
2019-05-19T16:12:16.031Z,1004.48
2019-05-19T16:13:46.057Z,1004.52
2019-05-19T16:15:16.119Z,1004.5
2019-05-19T16:16:16.118Z,1004.45
2019-05-19T16:17:46.132Z,1004.49
2019-05-19T16:19:16.154Z,1004.48
2019-05-19T16:20:56.201Z,1004.45
2019-05-19T16:22:16.202Z,1004.42
2019-05-19T16:23:46.227Z,1004.49
2019-05-19T16:25:16.254Z,1004.46
2019-05-19T16:26:16.264Z,1004.43
2019-05-19T16:27:46.294Z,1004.51
2019-05-19T16:29:16.310Z,1004.39
2019-05-19T16:30:56.356Z,1004.46
2019-05-19T16:32:16.364Z,1004.44
2019-05-19T16:33:46.394Z,1004.44
2019-05-19T16:35:16.410Z,1004.46
2019-05-19T16:36:16.436Z,1004.42
2019-05-19T16:37:46.431Z,1004.39
2019-05-19T16:39:16.447Z,1004.43
2019-05-19T16:40:56.481Z,1004.46
2019-05-19T16:42:16.498Z,1004.35
2019-05-19T16:44:16.547Z,1004.45
2019-05-19T16:46:16.659Z,1004.43
2019-05-19T16:48:16.684Z,1004.41
2019-05-19T16:49:46.708Z,1004.4
2019-05-19T16:51:16.730Z,1004.47
2019-05-19T16:52:46.741Z,1004.41
2019-05-19T16:53:26.801Z,1004.43
2019-05-19T16:55:16.860Z,1004.45
2019-05-19T16:57:16.886Z,1004.43
2019-05-19T16:59:16.908Z,1004.4
2019-05-19T17:00:47.004Z,1004.39
2019-05-19T17:01:26.994Z,1004.37
2019-05-19T17:02:47.014Z,1004.35
2019-05-19T17:03:27.021Z,1004.34
2019-05-19T17:05:17.062Z,1004.3
2019-05-19T17:07:17.108Z,1004.33
2019-05-19T17:08:47.134Z,1004.39
2019-05-19T17:09:17.135Z,1004.39
2019-05-19T17:09:57.149Z,1004.39
2019-05-19T17:10:47.147Z,1004.34
2019-05-19T17:11:27.148Z,1004.33
2019-05-19T17:12:17.212Z,1004.38
2019-05-19T17:12:47.195Z,1004.41
2019-05-19T17:13:17.230Z,1004.35
2019-05-19T17:15:27.259Z,1004.41
2019-05-19T17:17:17.287Z,1004.42
2019-05-19T17:20:17.400Z,1004.5
2019-05-19T17:21:47.360Z,1004.48
2019-05-19T17:22:27.369Z,1004.54
2019-05-19T17:24:27.397Z,1004.53
2019-05-19T17:26:17.422Z,1004.49
2019-05-19T17:28:17.465Z,1004.56
2019-05-19T17:29:27.488Z,1004.59
2019-05-19T17:30:47.514Z,1004.55
2019-05-19T17:31:27.521Z,1004.63
2019-05-19T17:33:17.549Z,1004.58
2019-05-19T17:34:27.567Z,1004.6
2019-05-19T17:36:17.595Z,1004.57
2019-05-19T17:37:47.616Z,1004.62
2019-05-19T17:38:47.621Z,1004.58
2019-05-19T17:39:27.626Z,1004.56
2019-05-19T17:40:47.661Z,1004.62
2019-05-19T17:41:27.671Z,1004.55
2019-05-19T17:43:17.723Z,1004.52
2019-05-19T17:44:27.750Z,1004.58
2019-05-19T17:46:17.787Z,1004.59
2019-05-19T17:48:25.949Z,1004.6
2019-05-19T17:49:27.873Z,1004.58
2019-05-19T17:50:47.922Z,1004.64
2019-05-19T17:51:27.894Z,1004.6
2019-05-19T17:53:17.953Z,1004.64
2019-05-19T17:54:27.979Z,1004.61
2019-05-19T17:56:17.993Z,1004.56
2019-05-19T17:58:18.032Z,1004.6
2019-05-19T17:59:28.055Z,1004.56
2019-05-19T18:00:48.089Z,1004.5
2019-05-19T18:01:48.095Z,1004.53
2019-05-19T18:02:48.139Z,1004.5
2019-05-19T18:03:48.195Z,1004.56
2019-05-19T18:04:28.177Z,1004.6
2019-05-19T18:05:48.195Z,1004.65
2019-05-19T18:06:48.224Z,1004.65
2019-05-19T18:07:28.221Z,1004.64
2019-05-19T18:09:48.258Z,1004.57
2019-05-19T18:10:48.270Z,1004.62
2019-05-19T18:11:28.399Z,1004.64
2019-05-19T18:12:48.373Z,1004.61
2019-05-19T18:15:18.362Z,1004.65
2019-05-19T18:17:18.411Z,1004.72
2019-05-19T18:18:48.432Z,1004.65
2019-05-19T18:19:48.441Z,1004.61
2019-05-19T18:20:48.461Z,1004.65
2019-05-19T18:22:18.558Z,1004.69
2019-05-19T18:24:48.683Z,1004.7
2019-05-19T18:26:18.741Z,1004.71
2019-05-19T18:27:48.766Z,1004.69
2019-05-19T18:28:58.816Z,1004.75
2019-05-19T18:30:18.831Z,1004.71
2019-05-19T18:31:48.865Z,1004.72
2019-05-19T18:33:18.875Z,1004.76
2019-05-19T18:34:18.894Z,1004.75
2019-05-19T18:35:48.927Z,1004.62
2019-05-19T18:38:59.030Z,1004.7
2019-05-19T18:40:19.042Z,1004.69
2019-05-19T18:41:49.066Z,1004.73
2019-05-19T18:43:19.122Z,1004.69
2019-05-19T18:44:19.180Z,1004.62
2019-05-19T18:45:49.220Z,1004.65
2019-05-19T18:47:19.241Z,1004.68
2019-05-19T18:49:49.299Z,1004.67
2019-05-19T18:51:19.364Z,1004.69
2019-05-19T18:52:49.373Z,1004.7
2019-05-19T18:53:59.393Z,1004.76
2019-05-19T18:55:19.446Z,1004.75
2019-05-19T18:56:51.127Z,1004.75
2019-05-19T18:58:19.472Z,1004.81
2019-05-19T18:59:19.492Z,1004.79
2019-05-19T19:00:49.519Z,1004.8
2019-05-19T19:02:19.599Z,1004.78
2019-05-19T19:03:59.558Z,1004.89
2019-05-19T19:05:19.582Z,1004.83
2019-05-19T19:06:49.602Z,1004.81
2019-05-19T19:08:19.620Z,1004.81
2019-05-19T19:09:49.648Z,1004.88
2019-05-19T19:10:39.867Z,1004.84
2019-05-19T19:11:19.684Z,1004.85
2019-05-19T19:12:49.717Z,1004.9
2019-05-19T19:13:49.742Z,1004.92
2019-05-19T19:15:19.804Z,1004.93
2019-05-19T19:16:49.803Z,1004.9
2019-05-19T19:18:19.838Z,1004.9
2019-05-19T19:19:49.853Z,1004.88
2019-05-19T19:21:19.889Z,1004.87
2019-05-19T19:22:49.944Z,1004.9
2019-05-19T19:23:49.961Z,1004.9
2019-05-19T19:25:19.979Z,1004.89
2019-05-19T19:26:10.020Z,1004.89
2019-05-19T19:26:50.076Z,1004.85
2019-05-19T19:28:20.094Z,1004.85
2019-05-19T19:30:02.314Z,1004.89
2019-05-19T19:31:20.318Z,1004.84
2019-05-19T19:32:50.314Z,1004.9
2019-05-19T19:33:50.400Z,1004.92
2019-05-19T19:35:20.383Z,1004.87
2019-05-19T19:36:50.371Z,1004.9
2019-05-19T19:38:20.590Z,1004.89
2019-05-19T19:39:50.415Z,1005.02
2019-05-19T19:41:20.587Z,1005
2019-05-19T19:42:50.618Z,1004.97
2019-05-19T19:43:50.624Z,1004.99
2019-05-19T19:45:20.746Z,1005.05
2019-05-19T19:46:53.596Z,1005.01
2019-05-19T19:48:20.837Z,1005.09
2019-05-19T19:49:50.828Z,1005.1
2019-05-19T19:51:20.825Z,1005.04
2019-05-19T19:52:50.803Z,1005.07
2019-05-19T19:53:50.904Z,1005.07
2019-05-19T19:55:20.895Z,1005.16
2019-05-19T19:56:50.811Z,1005.18
2019-05-19T19:58:30.831Z,1005.12
2019-05-19T19:59:50.852Z,1005.08
2019-05-19T20:01:20.918Z,1005.14
2019-05-19T20:02:50.963Z,1005.07
2019-05-19T20:03:50.987Z,1005.13
2019-05-19T20:05:20.993Z,1005.17
2019-05-19T20:06:11.005Z,1005.14
2019-05-19T20:06:51.008Z,1005.14
2019-05-19T20:08:21.024Z,1005.12
2019-05-19T20:09:51.117Z,1005.13
2019-05-19T20:11:21.127Z,1005.19
2019-05-19T20:12:51.171Z,1005.17
2019-05-19T20:13:51.168Z,1005.19
2019-05-19T20:15:21.185Z,1005.16
2019-05-19T20:16:51.261Z,1005.18
2019-05-19T20:18:21.363Z,1005.19
2019-05-19T20:19:51.304Z,1005.15
2019-05-19T20:21:21.354Z,1005.13
2019-05-19T20:22:51.334Z,1005.14
2019-05-19T20:23:51.409Z,1005.1
2019-05-19T20:25:21.427Z,1005.09
2019-05-19T20:26:51.438Z,1005.05
2019-05-19T20:28:21.456Z,1005.08
2019-05-19T20:29:51.480Z,1005.07
2019-05-19T20:31:21.489Z,1005.06
2019-05-19T20:32:51.531Z,1005.09
2019-05-19T20:33:51.524Z,1005.03
2019-05-19T20:35:21.540Z,1005.01
2019-05-19T20:36:51.614Z,1005.09